Time;durP1;ratioP1;P1;durP2;ratioP2;P2;SDS_P1;SDS_P2;PMS_P1;PMS_P2;Temp;Humidity;BMP_temperature;BMP_pressure;BME280_temperature;BME280_humidity;BME280_pressure;Samples;Min_cycle;Max_cycle;Signal;HPM_P1;HPM_P2
2022/06/17 00:02:09;;;;;;;3.80;3.50;;;22.60;55.50;;;;;;5045859;28;20484;-84
2022/06/17 00:04:36;;;;;;;3.63;3.33;;;22.40;55.60;;;;;;5043536;28;20537;-87
2022/06/17 00:07:12;;;;;;;4.60;4.20;;;22.50;55.50;;;;;;5049107;28;20461;-85
2022/06/17 00:09:39;;;;;;;4.33;3.93;;;22.50;56.50;;;;;;5050557;28;20476;-85
2022/06/17 00:12:11;;;;;;;6.33;3.73;;;22.40;57.10;;;;;;5044969;28;20544;-84
2022/06/17 00:17:25;;;;;;;4.10;3.80;;;22.30;58.00;;;;;;5041960;28;20444;-85
2022/06/17 00:19:52;;;;;;;3.90;3.60;;;22.40;58.00;;;;;;5039170;28;20837;-82
2022/06/17 00:22:20;;;;;;;3.83;3.50;;;22.40;57.70;;;;;;5023755;28;21029;-84
2022/06/17 00:24:50;;;;;;;3.93;3.53;;;22.20;57.50;;;;;;5044721;28;20459;-85
2022/06/17 00:27:17;;;;;;;4.03;3.37;;;22.10;58.50;;;;;;5038986;28;20474;-86
2022/06/17 00:29:44;;;;;;;5.80;4.00;;;22.10;58.90;;;;;;5041273;28;20496;-84
2022/06/17 00:32:11;;;;;;;4.57;3.70;;;21.90;58.90;;;;;;5041003;28;20477;-85
2022/06/17 00:34:38;;;;;;;4.73;3.40;;;21.80;59.20;;;;;;5048497;28;20462;-87
2022/06/17 00:37:07;;;;;;;3.97;3.67;;;21.70;59.70;;;;;;5046951;28;20458;-86
2022/06/17 00:39:38;;;;;;;3.60;3.30;;;21.70;59.50;;;;;;5039073;28;20456;-87
2022/06/17 00:42:13;;;;;;;4.40;4.00;;;21.70;59.50;;;;;;5038710;28;20469;-84
2022/06/17 00:44:51;;;;;;;4.50;4.20;;;21.70;60.10;;;;;;5041491;28;20455;-82
2022/06/17 00:47:42;;;;;;;4.60;4.30;;;21.60;61.50;;;;;;5036598;28;20869;-83
2022/06/17 00:50:15;;;;;;;5.40;5.00;;;21.40;62.80;;;;;;5041095;28;21399;-80
2022/06/17 00:52:50;;;;;;;4.77;4.20;;;21.40;63.50;;;;;;5036298;28;20487;-85
2022/06/17 00:55:30;;;;;;;4.80;4.03;;;21.40;64.10;;;;;;5037088;28;20505;-84
2022/06/17 00:58:01;;;;;;;4.60;4.20;;;21.40;64.60;;;;;;5034870;28;20457;-82
2022/06/17 01:00:30;;;;;;;4.37;4.07;;;21.50;65.30;;;;;;5037312;28;20471;-83
2022/06/17 01:03:02;;;;;;;5.53;4.43;;;21.40;65.20;;;;;;5037293;28;20468;-82
2022/06/17 01:05:55;;;;;;;5.07;4.43;;;21.30;65.20;;;;;;5035594;28;20465;-83
2022/06/17 01:11:16;;;;;;;5.93;4.63;;;21.00;67.20;;;;;;5035206;28;20472;-82
2022/06/17 01:13:48;;;;;;;5.17;4.43;;;21.00;67.50;;;;;;5039387;28;20425;-84
2022/06/17 01:16:16;;;;;;;4.57;4.27;;;21.00;67.60;;;;;;5035211;28;20467;-82
2022/06/17 01:18:45;;;;;;;6.07;4.03;;;21.00;67.60;;;;;;5033637;28;20972;-85
2022/06/17 01:21:24;;;;;;;4.80;4.40;;;21.00;67.60;;;;;;5037025;28;20455;-85
2022/06/17 01:23:51;;;;;;;8.03;4.33;;;21.10;67.50;;;;;;5036199;28;20453;-84
2022/06/17 01:26:18;;;;;;;4.73;4.17;;;21.00;67.90;;;;;;5049058;28;20483;-84
2022/06/17 01:28:45;;;;;;;4.20;3.80;;;21.10;68.30;;;;;;5035846;28;20896;-84
2022/06/17 01:31:12;;;;;;;3.77;3.57;;;21.00;67.40;;;;;;5038321;28;20507;-84
2022/06/17 01:33:42;;;;;;;4.37;4.07;;;21.00;66.30;;;;;;5037455;28;20813;-86
2022/06/17 01:36:29;;;;;;;4.43;4.00;;;21.10;65.10;;;;;;5035023;28;20445;-84
2022/06/17 01:38:59;;;;;;;4.53;3.73;;;21.00;65.40;;;;;;5054824;28;21191;-86
2022/06/17 01:41:31;;;;;;;3.70;3.40;;;21.00;65.90;;;;;;5037920;28;20476;-85
2022/06/17 01:44:05;;;;;;;4.03;3.73;;;20.90;65.40;;;;;;5033468;28;20545;-85
2022/06/17 01:46:37;;;;;;;3.50;3.30;;;20.80;65.70;;;;;;5036266;28;20448;-84
2022/06/17 01:49:08;;;;;;;4.57;3.50;;;20.70;66.50;;;;;;5037595;28;20472;-85
2022/06/17 01:51:40;;;;;;;4.33;3.57;;;20.60;67.10;;;;;;5044702;28;20483;-84
2022/06/17 01:54:12;;;;;;;5.03;3.50;;;20.70;67.30;;;;;;5035279;28;20449;-83
2022/06/17 01:56:42;;;;;;;4.10;3.80;;;20.80;67.40;;;;;;5032935;28;20469;-85
2022/06/17 01:59:14;;;;;;;4.77;4.23;;;20.80;68.20;;;;;;5041811;28;20510;-85
2022/06/17 02:01:45;;;;;;;4.13;3.80;;;20.80;68.80;;;;;;5040421;28;20508;-84
2022/06/17 02:04:19;;;;;;;4.47;4.17;;;20.60;70.00;;;;;;5036131;28;20463;-84
2022/06/17 02:06:57;;;;;;;4.60;4.20;;;20.60;72.40;;;;;;5034447;28;20953;-82
2022/06/17 02:09:24;;;;;;;3.63;3.43;;;20.60;73.50;;;;;;5039357;28;20471;-85
2022/06/17 02:11:52;;;;;;;7.23;4.20;;;20.70;72.40;;;;;;5037038;28;20484;-85
2022/06/17 02:14:19;;;;;;;3.47;3.17;;;20.60;71.80;;;;;;5034987;28;20484;-84
2022/06/17 02:16:50;;;;;;;4.27;3.53;;;20.50;72.20;;;;;;5034226;28;20445;-82
2022/06/17 02:19:18;;;;;;;5.10;3.77;;;20.40;72.50;;;;;;5034336;28;20465;-83
2022/06/17 02:21:49;;;;;;;4.03;3.73;;;20.70;72.70;;;;;;5036569;28;20484;-82
2022/06/17 02:24:18;;;;;;;4.17;3.60;;;20.50;72.70;;;;;;5037048;28;20472;-84
2022/06/17 02:26:46;;;;;;;3.77;3.50;;;20.20;72.20;;;;;;5036114;28;20463;-81
2022/06/17 02:29:14;;;;;;;3.93;3.63;;;20.30;72.60;;;;;;5033744;28;20457;-81
2022/06/17 02:31:42;;;;;;;4.10;3.70;;;20.20;72.20;;;;;;5036413;28;20487;-84
2022/06/17 02:34:12;;;;;;;6.93;3.57;;;20.10;73.40;;;;;;5034731;28;20452;-82
2022/06/17 02:37:01;;;;;;;3.83;3.50;;;19.90;74.60;;;;;;5034888;28;20444;-82
2022/06/17 02:39:28;;;;;;;4.33;3.93;;;19.90;75.60;;;;;;5033857;28;20444;-84
2022/06/17 02:41:56;;;;;;;3.70;3.50;;;19.90;77.00;;;;;;5033895;28;20842;-83
2022/06/17 02:44:27;;;;;;;5.40;4.47;;;19.90;78.70;;;;;;5034960;28;20490;-82
2022/06/17 02:46:56;;;;;;;5.80;3.83;;;19.90;77.50;;;;;;5036270;28;20564;-83
2022/06/17 02:49:30;;;;;;;7.63;4.13;;;19.70;77.80;;;;;;5037942;28;20460;-83
2022/06/17 02:51:58;;;;;;;4.40;4.00;;;19.90;78.00;;;;;;5038081;28;20480;-83
2022/06/17 02:54:35;;;;;;;4.37;3.97;;;19.90;78.40;;;;;;5037097;28;20456;-83
2022/06/17 02:57:03;;;;;;;4.50;4.10;;;19.80;79.00;;;;;;5037962;28;20445;-82
2022/06/17 02:59:51;;;;;;;7.27;4.40;;;19.70;79.90;;;;;;5051160;28;20532;-82
2022/06/17 03:02:29;;;;;;;4.77;4.37;;;19.70;80.10;;;;;;5035477;28;20971;-84
2022/06/17 03:04:57;;;;;;;4.43;4.07;;;19.70;79.30;;;;;;5035710;28;20460;-84
2022/06/17 03:07:28;;;;;;;4.33;4.03;;;19.60;78.70;;;;;;5035664;28;20998;-82
2022/06/17 03:09:55;;;;;;;4.07;3.77;;;19.60;78.50;;;;;;5035254;28;20438;-82
2022/06/17 03:12:26;;;;;;;4.30;3.90;;;19.50;79.10;;;;;;5035415;28;20487;-82
2022/06/17 03:15:12;;;;;;;4.73;4.33;;;19.30;79.40;;;;;;5034007;28;20461;-81
2022/06/17 03:17:40;;;;;;;4.40;4.00;;;19.40;80.20;;;;;;5033327;28;20456;-83
2022/06/17 03:20:19;;;;;;;4.20;3.90;;;19.40;80.00;;;;;;5039811;28;21234;-84
2022/06/17 03:22:49;;;;;;;4.77;4.23;;;19.50;79.60;;;;;;5038057;28;20543;-82
2022/06/17 03:25:23;;;;;;;4.73;4.37;;;19.50;79.60;;;;;;5038838;28;20476;-86
2022/06/17 03:28:11;;;;;;;4.30;4.00;;;19.50;80.20;;;;;;5039972;28;20782;-83
2022/06/17 03:30:44;;;;;;;4.00;3.80;;;19.50;80.40;;;;;;5040151;28;20476;-81
2022/06/17 03:33:26;;;;;;;5.60;5.03;;;19.50;80.80;;;;;;5039607;28;21217;-84
2022/06/17 03:35:58;;;;;;;4.80;4.40;;;19.40;81.30;;;;;;5036755;28;20812;-86
2022/06/17 03:38:25;;;;;;;3.77;3.50;;;19.30;82.10;;;;;;5037220;28;20452;-83
2022/06/17 03:40:55;;;;;;;4.37;4.07;;;19.10;84.10;;;;;;5039450;28;20958;-83
2022/06/17 03:43:34;;;;;;;3.93;3.63;;;19.00;84.60;;;;;;5040891;28;20479;-84
2022/06/17 03:46:03;;;;;;;3.83;3.43;;;19.00;85.30;;;;;;5049644;28;20724;-84
2022/06/17 03:48:47;;;;;;;4.47;4.07;;;19.10;85.70;;;;;;5052119;28;20445;-86
2022/06/17 03:51:21;;;;;;;4.50;4.20;;;19.30;86.10;;;;;;5047805;28;21876;-85
2022/06/17 03:53:49;;;;;;;4.60;4.00;;;19.30;86.50;;;;;;5037171;28;20464;-85
2022/06/17 03:56:30;;;;;;;3.70;3.40;;;19.30;86.70;;;;;;5036003;28;20454;-85
2022/06/17 03:59:10;;;;;;;4.70;4.30;;;19.00;86.80;;;;;;5038507;28;20445;-84
2022/06/17 04:01:47;;;;;;;4.40;4.10;;;18.90;87.80;;;;;;5037421;28;20472;-83
2022/06/17 04:04:31;;;;;;;4.10;3.80;;;18.60;88.70;;;;;;5037191;28;20445;-85
2022/06/17 04:06:58;;;;;;;4.30;4.00;;;18.50;89.80;;;;;;5035810;28;20769;-85
2022/06/17 04:09:28;;;;;;;5.47;4.80;;;18.40;90.50;;;;;;5037198;28;20460;-82
2022/06/17 04:12:20;;;;;;;8.23;4.90;;;18.40;91.10;;;;;;5034630;28;20476;-82
2022/06/17 04:15:06;;;;;;;4.80;4.50;;;18.40;91.30;;;;;;5029112;28;20459;-85
2022/06/17 04:17:46;;;;;;;5.63;5.17;;;18.40;91.20;;;;;;5037900;28;21177;-83
2022/06/17 04:20:31;;;;;;;5.70;5.03;;;18.50;91.50;;;;;;5036533;28;20467;-84
2022/06/17 04:23:10;;;;;;;5.10;4.67;;;18.50;91.30;;;;;;5034707;28;20480;-84
2022/06/17 04:25:39;;;;;;;5.07;4.63;;;18.60;91.50;;;;;;5034030;28;21110;-84
2022/06/17 04:28:10;;;;;;;5.60;5.10;;;18.50;92.20;;;;;;5033325;28;21849;-84
2022/06/17 04:30:42;;;;;;;5.40;4.90;;;18.50;91.70;;;;;;5049684;28;20452;-82
2022/06/17 04:33:34;;;;;;;8.40;5.50;;;18.60;91.80;;;;;;5032789;28;20477;-84
2022/06/17 04:36:12;;;;;;;7.03;5.00;;;18.70;91.50;;;;;;5041139;28;20443;-83
2022/06/17 04:39:02;;;;;;;5.03;4.53;;;18.90;91.10;;;;;;5032616;28;21967;-85
2022/06/17 04:41:33;;;;;;;4.53;4.13;;;18.80;90.90;;;;;;5032873;28;20476;-84
2022/06/17 04:44:03;;;;;;;4.47;4.10;;;18.70;90.90;;;;;;5034182;28;20471;-84
2022/06/17 04:46:38;;;;;;;4.77;4.47;;;18.60;90.90;;;;;;5032770;28;20507;-82
2022/06/17 04:49:13;;;;;;;4.80;4.40;;;18.60;91.10;;;;;;5033944;28;20444;-83
2022/06/17 04:51:40;;;;;;;4.67;4.37;;;18.70;91.40;;;;;;5032752;28;20523;-82
2022/06/17 04:54:07;;;;;;;4.60;4.10;;;18.90;90.90;;;;;;5033659;28;20447;-87
2022/06/17 04:56:39;;;;;;;5.00;4.63;;;18.90;90.70;;;;;;5032588;28;20445;-84
2022/06/17 04:59:33;;;;;;;4.30;4.00;;;18.90;90.30;;;;;;5035230;28;20461;-85
2022/06/17 05:02:02;;;;;;;5.20;4.33;;;18.80;90.30;;;;;;5035459;28;20461;-87
2022/06/17 05:04:29;;;;;;;5.10;4.70;;;18.70;90.50;;;;;;5033698;28;21290;-84
2022/06/17 05:06:56;;;;;;;4.67;4.30;;;18.90;90.10;;;;;;5037044;28;20444;-84
2022/06/17 05:09:37;;;;;;;4.43;4.00;;;18.90;90.10;;;;;;5035910;28;20468;-85
2022/06/17 05:12:24;;;;;;;4.90;4.50;;;18.90;90.10;;;;;;5033954;28;20834;-84
2022/06/17 05:14:54;;;;;;;4.60;4.20;;;19.10;90.30;;;;;;5035733;28;20448;-83
2022/06/17 05:17:22;;;;;;;5.07;3.90;;;18.80;90.50;;;;;;5032993;28;20460;-86
2022/06/17 05:19:49;;;;;;;5.23;3.70;;;18.90;90.30;;;;;;5035334;28;20452;-84
2022/06/17 05:22:31;;;;;;;6.90;4.43;;;19.10;89.70;;;;;;5035785;28;20515;-84
2022/06/17 05:25:00;;;;;;;3.70;3.50;;;19.10;89.60;;;;;;5035734;28;20444;-83
2022/06/17 05:27:27;;;;;;;4.77;3.77;;;19.10;88.90;;;;;;5033889;28;20469;-83
2022/06/17 05:29:53;;;;;;;3.73;3.43;;;19.10;89.30;;;;;;5033014;28;20465;-84
2022/06/17 05:32:21;;;;;;;4.33;3.60;;;19.20;88.90;;;;;;5032667;28;20575;-82
2022/06/17 05:34:49;;;;;;;4.40;4.00;;;19.20;86.90;;;;;;5034636;28;20487;-84
2022/06/17 05:37:16;;;;;;;3.67;3.37;;;19.00;87.30;;;;;;5032380;28;20484;-83
2022/06/17 05:39:42;;;;;;;3.87;3.40;;;19.10;86.80;;;;;;5033862;28;20452;-84
2022/06/17 05:42:11;;;;;;;4.30;3.90;;;19.10;87.50;;;;;;5030994;28;20694;-83
2022/06/17 05:44:39;;;;;;;4.33;3.93;;;19.30;87.00;;;;;;5031817;28;20471;-84
2022/06/17 05:47:07;;;;;;;5.50;3.90;;;19.20;87.70;;;;;;5032500;28;20476;-83
2022/06/17 05:49:34;;;;;;;3.77;3.50;;;19.00;88.00;;;;;;5032683;28;21020;-82
2022/06/17 05:52:01;;;;;;;4.10;3.70;;;19.00;88.50;;;;;;5033766;28;20491;-84
2022/06/17 05:54:27;;;;;;;4.90;4.07;;;19.00;89.60;;;;;;5040046;28;20525;-83
2022/06/17 05:56:54;;;;;;;3.83;3.53;;;19.00;89.30;;;;;;5036545;28;20443;-82
2022/06/17 05:59:21;;;;;;;4.30;3.70;;;18.90;89.70;;;;;;5040450;28;20451;-85
2022/06/17 06:01:47;;;;;;;4.20;3.80;;;19.10;90.00;;;;;;5014492;28;20487;-83
2022/06/17 06:04:14;;;;;;;5.67;3.60;;;19.20;89.50;;;;;;5027172;28;20456;-83
2022/06/17 06:06:41;;;;;;;4.63;3.80;;;19.40;89.50;;;;;;5039385;28;20510;-84
2022/06/17 06:09:09;;;;;;;4.20;3.80;;;19.80;87.60;;;;;;5041058;28;20461;-84
2022/06/17 06:11:36;;;;;;;4.43;4.07;;;19.80;87.30;;;;;;5043386;28;20494;-83
2022/06/17 06:14:03;;;;;;;4.17;3.77;;;19.90;86.80;;;;;;5039793;28;20456;-82
2022/06/17 06:16:30;;;;;;;4.30;4.00;;;20.00;86.30;;;;;;5043042;28;20448;-83
2022/06/17 06:18:57;;;;;;;7.13;4.40;;;20.00;86.90;;;;;;5042542;28;20829;-82
2022/06/17 06:21:24;;;;;;;5.80;5.20;;;20.00;87.00;;;;;;5043395;28;20499;-84
2022/06/17 06:23:51;;;;;;;4.77;4.23;;;19.90;87.40;;;;;;5044681;28;20456;-82
2022/06/17 06:26:20;;;;;;;7.17;4.30;;;19.90;88.00;;;;;;5046466;28;20452;-82
2022/06/17 06:28:47;;;;;;;3.93;3.43;;;20.10;87.80;;;;;;5043429;28;20460;-83
2022/06/17 06:31:17;;;;;;;4.40;3.93;;;20.30;86.60;;;;;;5045402;28;20515;-82
2022/06/17 06:33:43;;;;;;;5.00;3.63;;;20.40;85.10;;;;;;5047335;28;20449;-82
2022/06/17 06:36:10;;;;;;;4.03;3.63;;;20.30;84.40;;;;;;5045296;28;20520;-82
2022/06/17 06:38:37;;;;;;;5.20;4.80;;;20.30;84.40;;;;;;5044444;28;20456;-83
2022/06/17 06:41:04;;;;;;;5.00;3.77;;;20.50;84.00;;;;;;5047625;28;20444;-84
2022/06/17 06:43:31;;;;;;;8.10;3.73;;;20.50;83.60;;;;;;5044021;28;20448;-86
2022/06/17 06:45:58;;;;;;;9.43;3.80;;;20.70;83.60;;;;;;5044256;28;20468;-86
2022/06/17 06:48:26;;;;;;;4.27;3.87;;;20.70;83.00;;;;;;5042636;28;20825;-83
2022/06/17 06:50:53;;;;;;;5.40;4.00;;;20.70;82.90;;;;;;5036542;28;20462;-83
2022/06/17 06:53:20;;;;;;;4.43;3.70;;;20.70;82.20;;;;;;5039174;28;21037;-85
2022/06/17 06:55:48;;;;;;;5.47;4.40;;;21.00;81.10;;;;;;5039445;28;20473;-83
2022/06/17 06:58:18;;;;;;;5.63;4.00;;;20.90;79.50;;;;;;5036802;28;20457;-86
2022/06/17 07:00:47;;;;;;;6.50;3.87;;;20.90;80.40;;;;;;5034211;28;20461;-84
2022/06/17 07:03:20;;;;;;;4.97;4.00;;;20.90;80.00;;;;;;5036693;28;20480;-83
2022/06/17 07:05:54;;;;;;;4.23;3.90;;;21.10;78.70;;;;;;5035458;28;20450;-83
2022/06/17 07:08:26;;;;;;;4.00;3.70;;;21.00;79.00;;;;;;5039280;28;21267;-84
2022/06/17 07:10:55;;;;;;;5.23;3.30;;;21.20;78.70;;;;;;5042282;28;20463;-83
2022/06/17 07:13:32;;;;;;;4.80;3.20;;;21.40;77.70;;;;;;5038187;28;20496;-82
2022/06/17 07:16:00;;;;;;;4.73;2.70;;;21.60;75.50;;;;;;5039993;28;20451;-84
2022/06/17 07:18:33;;;;;;;3.70;3.40;;;21.60;74.20;;;;;;5040445;28;20846;-85
2022/06/17 07:21:10;;;;;;;5.70;3.30;;;21.70;74.80;;;;;;5053667;28;20463;-83
2022/06/17 07:23:44;;;;;;;3.70;3.40;;;21.70;72.90;;;;;;5047332;28;21016;-83
2022/06/17 07:26:24;;;;;;;4.03;3.30;;;21.80;72.30;;;;;;5040863;28;20465;-82
2022/06/17 07:28:53;;;;;;;4.03;3.20;;;21.90;72.70;;;;;;5041508;28;20453;-83
2022/06/17 07:31:23;;;;;;;6.70;3.93;;;21.90;72.60;;;;;;5042282;28;20460;-86
2022/06/17 07:33:57;;;;;;;3.40;3.10;;;21.90;73.30;;;;;;5039177;28;20502;-82
2022/06/17 07:42:01;;;;;;;4.17;3.77;;;22.60;70.50;;;;;;5034934;28;20480;-84
2022/06/17 07:44:27;;;;;;;3.73;2.87;;;22.50;70.60;;;;;;5036084;28;20468;-83
2022/06/17 07:46:54;;;;;;;5.17;2.83;;;23.10;69.20;;;;;;5034564;28;20485;-85
2022/06/17 07:49:21;;;;;;;3.40;3.13;;;23.30;67.30;;;;;;5034796;28;20918;-84
2022/06/17 07:51:49;;;;;;;4.00;3.00;;;23.50;65.40;;;;;;5038557;28;20493;-84
2022/06/17 07:54:16;;;;;;;4.20;3.77;;;23.60;66.60;;;;;;5036217;28;20453;-83
2022/06/17 07:56:45;;;;;;;2.50;2.30;;;23.90;65.20;;;;;;5034246;28;20460;-84
2022/06/17 07:59:12;;;;;;;3.90;2.97;;;23.70;64.60;;;;;;5041870;28;20486;-88
2022/06/17 08:01:39;;;;;;;4.93;3.37;;;24.30;63.10;;;;;;5040270;28;20990;-81
2022/06/17 08:04:06;;;;;;;3.07;2.60;;;24.40;61.90;;;;;;5033672;28;20453;-81
2022/06/17 08:06:33;;;;;;;3.67;2.70;;;24.40;61.80;;;;;;5030304;28;20453;-83
2022/06/17 08:08:59;;;;;;;2.77;2.57;;;24.00;62.30;;;;;;5029988;28;20977;-80
2022/06/17 08:11:26;;;;;;;3.00;2.70;;;23.60;63.60;;;;;;5033749;28;20464;-84
2022/06/17 08:13:53;;;;;;;3.17;2.87;;;23.70;63.50;;;;;;5040574;28;20487;-85
2022/06/17 08:16:23;;;;;;;3.40;2.93;;;24.10;62.00;;;;;;5038887;28;20500;-84
2022/06/17 08:19:03;;;;;;;;;;;;;;;;;;;;;
2022/06/17 08:21:33;;;;;;;3.37;3.07;;;24.20;62.10;;;;;;5040433;28;20483;-84
2022/06/17 08:24:20;;;;;;;2.60;2.40;;;24.20;61.80;;;;;;5043245;28;20432;-84
2022/06/17 08:26:48;;;;;;;3.10;2.40;;;24.40;61.40;;;;;;5042657;28;20507;-84
2022/06/17 08:29:17;;;;;;;4.10;2.93;;;24.30;61.80;;;;;;5041833;28;21105;-84
2022/06/17 08:34:50;;;;;;;3.90;2.50;;;24.70;59.90;;;;;;5042916;28;20455;-82
2022/06/17 08:37:17;;;;;;;2.83;2.57;;;24.70;60.00;;;;;;5056027;28;20472;-87
2022/06/17 08:39:46;;;;;;;2.80;2.60;;;25.10;59.30;;;;;;5057528;28;20433;-86
2022/06/17 08:42:26;;;;;;;3.60;3.30;;;25.20;58.70;;;;;;5060740;28;20498;-85
2022/06/17 08:45:21;;;;;;;4.03;2.70;;;24.90;59.20;;;;;;5045341;28;20514;-84
2022/06/17 08:48:18;;;;;;;4.37;3.10;;;24.60;59.80;;;;;;5041104;28;21048;-84
2022/06/17 08:51:06;;;;;;;3.80;2.77;;;25.60;58.70;;;;;;5048115;28;20463;-82
2022/06/17 08:53:51;;;;;;;3.10;2.57;;;25.90;57.50;;;;;;5040251;28;20474;-86
2022/06/17 08:56:33;;;;;;;2.60;2.40;;;26.10;55.10;;;;;;5045071;28;20432;-81
2022/06/17 08:59:09;;;;;;;7.73;3.30;;;26.10;54.40;;;;;;5046778;28;20467;-85
2022/06/17 09:02:05;;;;;;;3.57;2.27;;;26.10;53.50;;;;;;5041675;28;20460;-84
2022/06/17 09:04:54;;;;;;;3.70;2.30;;;26.20;52.40;;;;;;5040208;28;20524;-83
2022/06/17 09:07:38;;;;;;;7.90;2.90;;;27.00;50.90;;;;;;5040444;28;20481;-84
2022/06/17 09:10:20;;;;;;;1.93;1.83;;;26.50;51.60;;;;;;5040438;28;20477;-85
2022/06/17 09:13:37;;;;;;;2.90;2.23;;;27.30;49.90;;;;;;5040524;28;20508;-86
2022/06/17 09:16:09;;;;;;;5.13;2.87;;;27.40;49.70;;;;;;5006671;28;21669;-82
2022/06/17 09:18:42;;;;;;;2.57;2.20;;;26.80;50.00;;;;;;5040806;28;20531;-84
2022/06/17 09:21:15;;;;;;;3.00;2.40;;;26.90;49.70;;;;;;5038762;28;20511;-83
2022/06/17 09:23:43;;;;;;;3.50;2.27;;;27.20;49.90;;;;;;5042311;28;20456;-85
2022/06/17 09:26:24;;;;;;;2.53;2.27;;;27.20;50.00;;;;;;5040234;28;20471;-82
2022/06/17 09:29:06;;;;;;;4.60;2.43;;;27.20;50.00;;;;;;5038831;28;20456;-86
2022/06/17 09:31:38;;;;;;;2.60;2.40;;;27.20;49.60;;;;;;5042387;28;20492;-84
2022/06/17 09:34:11;;;;;;;3.00;2.70;;;27.30;49.80;;;;;;5042913;28;20442;-85
2022/06/17 09:36:52;;;;;;;3.10;2.80;;;27.00;50.20;;;;;;5048549;28;20450;-84
2022/06/17 09:39:42;;;;;;;2.87;2.67;;;27.80;49.30;;;;;;5054620;28;20455;-83
2022/06/17 09:42:19;;;;;;;2.17;1.97;;;28.40;47.70;;;;;;5051238;28;20468;-81
2022/06/17 09:44:53;;;;;;;2.50;2.30;;;28.90;45.20;;;;;;5042697;28;20536;-85
2022/06/17 09:47:40;;;;;;;2.13;1.90;;;28.90;45.60;;;;;;5040013;28;20463;-85
2022/06/17 09:50:13;;;;;;;2.17;1.90;;;29.50;44.70;;;;;;5047012;28;20437;-84
2022/06/17 09:52:47;;;;;;;2.23;2.03;;;29.90;43.70;;;;;;5058735;28;20464;-86
2022/06/17 09:55:45;;;;;;;2.13;1.60;;;29.80;43.50;;;;;;5059186;28;20479;-87
2022/06/17 09:58:25;;;;;;;2.13;1.93;;;30.20;42.30;;;;;;5017771;28;20451;-88
2022/06/17 10:00:55;;;;;;;3.33;1.97;;;30.40;41.30;;;;;;5058602;28;20719;-85
2022/06/17 10:03:25;;;;;;;2.20;2.00;;;31.00;40.20;;;;;;5053938;28;20484;-85
2022/06/17 10:06:19;;;;;;;1.73;1.63;;;30.80;40.40;;;;;;5055884;28;20513;-86
2022/06/17 10:09:21;;;;;;;1.67;1.57;;;31.10;39.80;;;;;;5049872;28;20455;-85
2022/06/17 10:12:11;;;;;;;3.43;1.90;;;30.80;38.40;;;;;;5040340;28;20476;-87
2022/06/17 10:14:58;;;;;;;2.03;1.57;;;30.80;38.00;;;;;;5039859;28;20444;-84
2022/06/17 10:20:55;;;;;;;1.70;1.50;;;31.20;37.90;;;;;;5009286;28;20474;-83
2022/06/17 10:23:55;;;;;;;2.97;1.70;;;31.70;34.60;;;;;;5032904;28;20475;-84
2022/06/17 10:26:31;;;;;;;2.33;1.50;;;31.20;34.90;;;;;;5038998;28;21000;-85
2022/06/17 10:29:10;;;;;;;2.20;1.47;;;31.00;35.50;;;;;;5034871;28;20456;-85
2022/06/17 10:31:44;;;;;;;1.60;1.50;;;31.30;33.80;;;;;;5035332;28;20484;-84
2022/06/17 10:34:15;;;;;;;2.40;1.77;;;31.40;34.80;;;;;;5037771;28;20511;-85
2022/06/17 10:36:45;;;;;;;1.53;1.43;;;30.80;34.60;;;;;;5035040;28;20491;-86
2022/06/17 10:39:15;;;;;;;1.80;1.57;;;31.40;33.70;;;;;;5033563;28;20847;-86
2022/06/17 10:41:46;;;;;;;1.40;1.30;;;31.70;32.80;;;;;;5038746;28;20479;-85
2022/06/17 10:44:22;;;;;;;2.07;1.50;;;32.00;32.10;;;;;;5039396;28;20490;-85
2022/06/17 10:47:12;;;;;;;1.27;1.10;;;31.80;32.60;;;;;;5045514;28;20482;-86
2022/06/17 10:50:13;;;;;;;2.20;1.60;;;31.30;31.20;;;;;;5044346;28;20476;-83
2022/06/17 10:52:53;;;;;;;1.40;1.30;;;31.60;31.30;;;;;;5034730;28;20487;-83
2022/06/17 10:55:37;;;;;;;1.53;1.43;;;31.30;33.00;;;;;;5012584;28;20456;-84
2022/06/17 10:58:20;;;;;;;4.27;1.43;;;32.00;32.10;;;;;;5041187;28;20452;-87
2022/06/17 11:01:16;;;;;;;2.07;1.87;;;31.60;32.70;;;;;;5040745;28;20434;-87
2022/06/17 11:03:48;;;;;;;1.70;1.57;;;32.10;33.10;;;;;;5028441;28;20474;-87
2022/06/17 11:06:51;;;;;;;1.60;1.50;;;31.90;33.30;;;;;;5044113;28;20445;-86
2022/06/17 11:09:27;;;;;;;1.57;1.47;;;31.90;32.40;;;;;;5041418;28;20946;-86
2022/06/17 11:12:03;;;;;;;1.93;1.63;;;32.20;31.90;;;;;;5036323;28;20536;-85
2022/06/17 11:14:45;;;;;;;3.07;1.40;;;31.70;32.40;;;;;;5035181;28;20524;-86
2022/06/17 11:17:34;;;;;;;2.77;1.80;;;31.00;33.80;;;;;;5044037;28;20456;-86
2022/06/17 11:20:14;;;;;;;3.10;1.83;;;30.80;33.80;;;;;;5038213;28;20448;-86
2022/06/17 11:23:18;;;;;;;3.50;2.00;;;30.70;33.50;;;;;;5037077;28;20507;-86
2022/06/17 11:25:46;;;;;;;3.03;2.10;;;31.00;34.40;;;;;;5040318;28;20465;-84
2022/06/17 11:28:39;;;;;;;1.90;1.80;;;31.60;34.50;;;;;;5038013;28;20443;-86
2022/06/17 11:31:12;;;;;;;4.13;2.00;;;31.80;34.20;;;;;;5042826;28;20834;-86
2022/06/17 11:33:54;;;;;;;1.80;1.70;;;31.80;34.20;;;;;;5040233;28;20499;-83
2022/06/17 11:36:29;;;;;;;1.87;1.77;;;31.70;34.80;;;;;;5036213;28;20452;-86
2022/06/17 11:38:58;;;;;;;1.67;1.50;;;31.80;35.80;;;;;;5035658;28;20572;-85
2022/06/17 11:41:33;;;;;;;2.07;1.97;;;31.90;35.40;;;;;;5035280;28;20476;-84
2022/06/17 11:44:10;;;;;;;2.33;1.57;;;32.20;35.70;;;;;;5033474;28;20460;-83
2022/06/17 11:46:51;;;;;;;2.10;1.87;;;32.00;35.50;;;;;;5034617;28;20472;-86
2022/06/17 11:49:20;;;;;;;2.83;2.20;;;32.00;35.60;;;;;;5035542;28;20440;-86
2022/06/17 11:51:55;;;;;;;2.47;2.27;;;32.10;35.90;;;;;;5036555;28;20468;-84
2022/06/17 11:54:24;;;;;;;5.73;2.40;;;32.00;35.70;;;;;;5040948;28;20571;-84
2022/06/17 11:57:02;;;;;;;3.40;1.90;;;31.40;36.40;;;;;;5032852;28;20544;-83
2022/06/17 11:59:32;;;;;;;2.87;2.10;;;31.60;37.10;;;;;;5051007;28;20471;-84
2022/06/17 12:02:07;;;;;;;4.73;3.07;;;32.20;36.50;;;;;;5039907;28;20576;-83
2022/06/17 12:04:47;;;;;;;4.43;2.07;;;32.00;36.30;;;;;;5025449;28;20490;-84
2022/06/17 12:07:43;;;;;;;3.50;1.97;;;31.80;36.90;;;;;;5039980;28;20464;-84
2022/06/17 12:10:41;;;;;;;4.40;2.50;;;31.80;36.90;;;;;;5040110;28;20452;-85
2022/06/17 12:13:44;;;;;;;3.07;2.13;;;31.90;37.50;;;;;;5044007;28;20560;-84
2022/06/17 12:16:23;;;;;;;2.30;1.93;;;32.40;36.80;;;;;;5037444;28;20544;-86
2022/06/17 12:18:56;;;;;;;5.53;2.00;;;32.80;35.80;;;;;;5034449;28;20461;-83
2022/06/17 12:21:45;;;;;;;6.33;2.60;;;32.00;36.50;;;;;;5038848;28;20556;-85
2022/06/17 12:24:33;;;;;;;2.47;2.20;;;31.70;37.20;;;;;;5037130;28;20463;-85
2022/06/17 12:27:12;;;;;;;3.53;1.90;;;32.10;36.70;;;;;;5039554;28;21887;-86
2022/06/17 12:29:58;;;;;;;3.70;2.00;;;32.50;36.30;;;;;;5039351;28;20528;-86
2022/06/17 12:32:33;;;;;;;2.30;2.10;;;33.10;35.80;;;;;;5040360;28;20473;-85
2022/06/17 12:35:26;;;;;;;4.93;2.30;;;33.30;34.50;;;;;;5039947;28;20449;-85
2022/06/17 12:38:12;;;;;;;4.20;2.27;;;32.60;35.40;;;;;;5039990;28;20560;-85
2022/06/17 12:40:52;;;;;;;2.70;2.00;;;32.80;35.30;;;;;;5040904;28;20459;-81
2022/06/17 12:43:35;;;;;;;3.33;1.90;;;32.70;35.00;;;;;;5040860;28;20488;-85
2022/06/17 12:46:10;;;;;;;8.53;2.40;;;32.80;35.50;;;;;;5042471;28;20457;-84
2022/06/17 12:48:46;;;;;;;3.97;2.30;;;32.70;35.60;;;;;;5041229;28;20461;-86
2022/06/17 12:54:27;;;;;;;2.17;2.07;;;33.10;34.90;;;;;;5040197;28;20472;-85
2022/06/17 12:57:03;;;;;;;3.57;2.00;;;33.50;35.10;;;;;;5042008;28;20452;-84
2022/06/17 12:59:41;;;;;;;2.60;1.70;;;33.00;35.50;;;;;;5039801;28;20492;-84
2022/06/17 13:02:15;;;;;;;2.40;1.87;;;32.80;35.80;;;;;;5039800;28;20472;-85
2022/06/17 13:05:06;;;;;;;4.47;2.13;;;33.00;35.60;;;;;;5049764;28;20553;-86
2022/06/17 13:08:09;;;;;;;3.97;2.17;;;32.80;36.20;;;;;;5043949;28;20452;-83
2022/06/17 13:10:47;;;;;;;4.67;2.57;;;32.40;36.60;;;;;;5043446;28;20489;-84
2022/06/17 13:13:26;;;;;;;3.27;2.30;;;32.60;36.40;;;;;;5045145;28;20552;-85
2022/06/17 13:15:55;;;;;;;5.27;3.30;;;32.40;36.60;;;;;;5046901;28;20452;-82
2022/06/17 13:18:28;;;;;;;4.53;3.90;;;32.40;36.80;;;;;;5046959;28;20448;-85
2022/06/17 13:21:08;;;;;;;2.57;2.10;;;32.20;37.00;;;;;;5051328;28;20461;-85
2022/06/17 13:23:49;;;;;;;3.90;2.20;;;32.20;37.00;;;;;;5047516;28;20463;-86
2022/06/17 13:26:35;;;;;;;3.40;2.30;;;32.30;37.10;;;;;;5043804;28;20548;-86
2022/06/17 13:29:12;;;;;;;2.37;2.17;;;32.10;37.50;;;;;;5044854;28;20993;-84
2022/06/17 13:32:10;;;;;;;3.97;2.50;;;32.40;37.10;;;;;;5044526;28;20474;-83
2022/06/17 13:34:55;;;;;;;;;;;;;;;;;;;;;
2022/06/17 13:37:33;;;;;;;2.10;1.90;;;31.80;38.00;;;;;;5050276;28;20432;-86
2022/06/17 13:40:08;;;;;;;2.33;2.10;;;32.10;36.80;;;;;;5058641;28;20475;-86
2022/06/17 13:42:39;;;;;;;2.27;2.00;;;32.00;37.30;;;;;;5056314;28;20460;-84
2022/06/17 13:45:21;;;;;;;2.00;1.90;;;31.80;37.70;;;;;;5044468;28;20604;-85
2022/06/17 13:48:06;;;;;;;3.33;2.23;;;31.90;37.90;;;;;;5041402;28;20437;-83
2022/06/17 13:50:55;;;;;;;2.33;2.20;;;32.00;37.60;;;;;;5044757;28;20615;-82